Sunday, November 18, 2018, 2:52 PM GMT
Back to Local

CZBF, Bathurst Airport Aviation Weather Reporting Station

Location: , , Canada Lat: 47.633
Local Time: 2:52 PM GMT (14:52 GMT) Lon: -65.75
Time Zone: GMT Elev: 193 ft

Show me the last for .
Show Decoded

2018-11-18 14:25 METAR CZBF 181425Z AUTO 28009G18KT 9SM -SN OVC024 M06/M11 A3027 RMK SLP256 =
2018-11-18 14:15 METAR CZBF 181415Z AUTO 26014G20KT 9SM -SN OVC026 M06/M11 A3026 RMK SLP254 =
2018-11-18 14:12 METAR CZBF 181412Z AUTO 26014G19KT 9SM OVC026 M06/M11 A3027 RMK SLP255 =
2018-11-18 14:02 METAR CZBF 181402Z AUTO 26012G18KT 9SM -SN BKN026 M06/M11 A3027 RMK SLP255 =
2018-11-18 14:00 METAR CZBF 181400Z AUTO 27011G18KT 9SM BKN026 M06/M11 A3026 RMK SLP254 =
2018-11-18 13:32 METAR CZBF 181332Z AUTO 26014KT 9SM SCT028 M06/M11 A3025 RMK SLP251 =
2018-11-18 13:18 METAR CZBF 181318Z AUTO 26014G20KT 9SM -SN FEW028 M07/M11 A3025 RMK SLP249 =
2018-11-18 13:00 METAR CZBF 181300Z AUTO 24010KT 9SM CLR M07/M11 A3024 RMK SLP246 =
2018-11-18 12:00 METAR CZBF 181200Z AUTO 25008KT 7SM CLR M10/M12 A3021 RMK SLP237 =
2018-11-18 11:58 METAR CZBF 181158Z AUTO 25009KT 6SM BR CLR M10/M12 A3021 RMK SLP236 =
2018-11-18 11:51 METAR CZBF 181151Z AUTO 26009KT 5SM HZ CLR M09/M12 A3020 RMK SLP234 =
2018-11-18 11:00 METAR CZBF 181100Z AUTO 26007KT 9SM CLR M09/M12 A3017 RMK SLP224 =
2018-11-18 10:00 METAR CZBF 181000Z AUTO 25006KT 9SM CLR M09/M11 A3014 RMK SLP213 =
2018-11-18 09:00 METAR CZBF 180900Z AUTO 27008KT 9SM CLR M07/M10 A3011 RMK SLP201 =
2018-11-18 08:00 METAR CZBF 180800Z AUTO 28007KT 9SM CLR M06/M10 A3009 RMK SLP193 =
2018-11-18 07:00 METAR CZBF 180700Z AUTO 27007KT 9SM CLR M06/M09 A3006 RMK SLP184 =
2018-11-18 06:00 METAR CZBF 180600Z AUTO 29010G17KT 9SM CLR M05/M09 A3003 RMK SLP173 =
2018-11-18 05:12 METAR CZBF 180512Z AUTO 27007KT 9SM CLR M05/M08 A3001 RMK SLP167 =
2018-11-18 05:00 METAR CZBF 180500Z AUTO 27007KT 9SM -SN CLR M04/M07 A3000 RMK SLP165 =
2018-11-18 04:53 METAR CZBF 180453Z AUTO 27008KT 9SM -SN CLR M04/M07 A3000 RMK SLP163 =
2018-11-18 04:48 METAR CZBF 180448Z AUTO 28008G15KT 9SM CLR M04/M07 A3000 RMK SLP163 =
2018-11-18 04:09 METAR CZBF 180409Z AUTO 28012G18KT 9SM -SN CLR M03/M07 A2997 RMK SLP153 =
2018-11-18 04:00 METAR CZBF 180400Z AUTO 27010G16KT 9SM CLR M03/M07 A2996 RMK SLP152 =
2018-11-18 03:00 METAR CZBF 180300Z AUTO 27010G15KT 9SM CLR M03/M06 A2994 RMK SLP143 =
2018-11-18 02:00 METAR CZBF 180200Z AUTO 26007KT 9SM CLR M04/M07 A2992 RMK SLP137 =
2018-11-18 01:00 METAR CZBF 180100Z AUTO 26008KT 9SM FEW100 M03/M07 A2990 RMK SLP129 =
2018-11-18 00:00 METAR CZBF 180000Z AUTO 24006KT 9SM CLR M05/M08 A2988 RMK SLP123 =
2018-11-17 23:00 METAR CZBF 172300Z AUTO 25005KT 9SM CLR M04/M07 A2987 RMK SLP119 =
2018-11-17 22:00 METAR CZBF 172200Z AUTO 22004KT 9SM CLR M03/M07 A2986 RMK SLP116 =
2018-11-17 21:00 METAR CZBF 172100Z AUTO 26007KT 9SM SCT037 M03/M07 A2984 RMK SLP108 =
2018-11-17 20:00 METAR CZBF 172000Z AUTO 28009G19KT 250V310 9SM CLR M02/M07 A2981 RMK SLP099 =
2018-11-17 19:00 METAR CZBF 171900Z AUTO 27010G20KT 9SM FEW027 M01/M07 A2979 RMK SLP091 =
2018-11-17 18:42 METAR CZBF 171842Z AUTO 26013G21KT 9SM FEW027 M01/M07 A2978 RMK SLP088 =
2018-11-17 18:09 METAR CZBF 171809Z AUTO 27013G18KT 9SM -SN OVC110 M01/M07 A2978 RMK SLP088 =
2018-11-17 18:00 METAR CZBF 171800Z AUTO 27009G22KT 9SM OVC110 M02/M07 A2977 RMK SLP087 =
2018-11-17 17:00 METAR CZBF 171700Z AUTO 28013G20KT 9SM FEW021 OVC110 M02/M06 A2976 RMK SLP081 =
2018-11-17 16:33 METAR CZBF 171633Z AUTO 29011G18KT 9SM BKN110 M02/M06 A2975 RMK SLP079 =
2018-11-17 16:15 METAR CZBF 171615Z AUTO 27011G20KT 9SM -SN CLR M01/M06 A2975 RMK SLP079 =
2018-11-17 16:00 METAR CZBF 171600Z AUTO 28007G15KT 240V310 9SM CLR M01/M06 A2974 RMK SLP077 =
2018-11-17 15:00 METAR CZBF 171500Z AUTO 29009G16KT 250V330 9SM OVC070 M02/M06 A2974 RMK SLP077 =

Support USWX by starting your Amazon purchase here.